Mount Lemmon, AZ

6:49 PM MST on December 25, 2014 (GMT -0700)
Tucson International | Change Station
CLOSE
Current Station
Airport
Location: Tucson,
Elevation: 2556 ft
Nearby Weather Stations

Elev 2556 ft 32.13 °N, 110.96 °W | Updated 56 minutes ago

Overcast
Overcast
54 °F
Feels Like 54 °F
N
15
Wind Variable Wind from NW

Today
High -- | Low -- °F
--% Chance of Precip.
Yesterday
High -- | Low -- °F
Precip. -- in
7:22 AM 5:24 PM
Waxing Crescent, 21% visible
Pressure 29.69 in
Visibility 10.0 miles
Clouds Mostly Cloudy 6000 ft
Mostly Cloudy 7000 ft
Overcast 9500 ft
Dew Point 32 °F
Humidity 43%
Rainfall 0.00 in
Snow Depth Not available.
UV 0 out of 12
Pollen 6.60 out of 12
Air Quality Not available.
Flu Activity Not available.
METAR KTUS 260053Z 32013KT 10SM BKN060 BKN070 OVC095 12/00 A2975 RMK AO2 LTG DSNT SW AND W RAB14E34 SLP053 P0000 T01220000

More Conditions Fewer Conditions

Pressure 29.69 in
Visibility 10.0 miles
Clouds Mostly Cloudy 6000 ft
Mostly Cloudy 7000 ft
Overcast 9500 ft
Dew Point 32 °F
Humidity 43%
Rainfall 0.00 in
Snow Depth Not available.
UV 0 out of 12
Pollen 6.60 out of 12
Air Quality Not available.
Flu Activity Not available.
METAR KTUS 260053Z 32013KT 10SM BKN060 BKN070 OVC095 12/00 A2975 RMK AO2 LTG DSNT SW AND W RAB14E34 SLP053 P0000 T01220000

More Conditions Fewer Conditions

Nowcast | as of 6:44 PM MST on December 25, 2014

Scattered light to moderate showers will continue to increase in intensity and coverage along a frontal boundary tracking through Southeast Arizona. The front is positioned along a line from south central Pima County...to Tucson...to Safford. These showers... possibly with an embedded thunderstorm will generally produce between a tenth to a quarter inch of rain in the valleys and an inch or two of snow above 7500 feet through the evening hours.

×

10-Day Weather Forecast

Almanac

Astronomy

Dec. 25, 2014 Rise Set
Actual Time
Civil Twilight
Nautical Twilight
Astronomical Twilight
Moon
Length of Visible Light
Length of Day
Tomorrow will be .
, % of the Moon is Illuminated

Today's Extremes

State Highs State Lows

Community

WunderPhotos

Upload Photos

1,780,495 photos uploaded!

WunderBlogs® & News

Nearby

Air Quality

  Air Quality AQ Index Pollutant
Not available.

Snow Depth

Station Depth Elevation

Earthquake Activity

City Distance Mag. Time & Date
Minimum magnitude displayed is 2.5.

Coastal Water Temperatures

Place Temperature

Nearby Weather Stations